Clearlake, Washington
Current Conditions -  °F | °C
As of 12:35 AM on Friday 21 Nov 2014 (Local Time) from KBVS Reporting Station
Broken Clouds Broken Clouds  
Wind Chill: 54°   Ceiling: 9000
Heat Index: 54°   Visibility: 10mi
Dew Point: 45°   Wind: 8mph
Humidity: 72%   Direction: 140°SE
Pressure: 29.87"   Gusts: NA
Location:  48.46°N, 122.23°W
Report Text: KBVS 210835Z AUTO 14007KT 10SM FEW060 BKN090 12/07 A2987 RMK A01 P000
Loading
Personal Weather Stations






























Interactive Weather Map New forecast layout! Learn more

10-Day Weather Forecast

Advertisements
Track Severe Weather on mobile